Fayetteville, NY

8:25 AM EDT on October 30, 2014 (GMT -0400)
KC2HUX - Fayetteville Heights | Change Station
CLOSE
Current Station
Personal Weather Station
Location: Fayetteville, NY
Elevation: 730 ft
Nearby Weather Stations

Elev 730 ft 43.03 °N, 75.98 °W | Updated 8 seconds ago

Overcast
Overcast
43.6 °F
Feels Like 44 °F
N
3.0
Wind Variable Wind from West
Gusts 9.0 mph

Today
High -- | Low -- °F
--% Chance of Precip.
Yesterday
High -- | Low -- °F
Precip. -- in
7:36 AM 5:58 PM
Waxing Crescent, 43% visible
Pressure 30.00 in
Visibility 9.0 miles
Clouds Scattered Clouds 2000 ft
Mostly Cloudy 2700 ft
Overcast 3400 ft
Windchill 44 °F
Dew Point 41 °F
Humidity 90%
Rainfall 0.00 in
Snow Depth Not available.
UV 0 out of 12
Pollen .10 out of 12
Air Quality Not available.
Flu Activity Not available.
METAR KSYR 301154Z 25010KT 9SM -RA SCT020 BKN027 OVC034 07/05 A3000 RMK AO2 SLP158 SCT V BKN P0001 60002 70002 T00670050 10094 20067 53016

More Conditions Fewer Conditions

Pressure 30.00 in
Visibility 9.0 miles
Clouds Scattered Clouds 2000 ft
Mostly Cloudy 2700 ft
Overcast 3400 ft
Windchill 44 °F
Dew Point 41 °F
Humidity 90%
Rainfall 0.00 in
Snow Depth Not available.
UV 0 out of 12
Pollen .10 out of 12
Air Quality Not available.
Flu Activity Not available.
METAR KSYR 301154Z 25010KT 9SM -RA SCT020 BKN027 OVC034 07/05 A3000 RMK AO2 SLP158 SCT V BKN P0001 60002 70002 T00670050 10094 20067 53016

More Conditions Fewer Conditions

10-Day Weather Forecast

Almanac

Astronomy

Oct. 30, 2014 Rise Set
Actual Time
Civil Twilight
Nautical Twilight
Astronomical Twilight
Moon
Length of Visible Light
Length of Day
Tomorrow will be .
, % of the Moon is Illuminated

Today's Extremes

State Highs State Lows

Community

WunderPhotos

Upload Photos

1,766,351 photos uploaded!

WunderBlogs® & News

Nearby

Air Quality

  Air Quality AQ Index Pollutant
Not available.

Snow Depth

Station Depth Elevation

Earthquake Activity

City Distance Mag. Time & Date
Minimum magnitude displayed is 2.5.

Coastal Water Temperatures

Place Temperature

Nearby Weather Stations